Sodville, Texas
Current Conditions -  °F | °C
As of 11:09 AM on Monday 22 Dec 2014 (Local Time) from KCRP Reporting Station
Overcast Overcast  
Wind Chill: 64°   Ceiling: 600
Heat Index: 64°   Visibility: 7mi
Dew Point: 61°   Wind: 12mph
Humidity: 90%   Direction: 210°SSW
Pressure: 29.78"   Gusts: NA
Location:  28.0577°N, 97.5365°W
Report Text: KCRP 221709Z 21010KT 7SM OVC006 18/16 A2978 RMK AO2 T01780161
Loading
Personal Weather Stations






























Interactive Weather Map New forecast layout! Learn more

10-Day Weather Forecast

Advertisements
Track Severe Weather on mobile